Time,TemperatureF,DewpointF,PressureIn,WindDirection,WindDirectionDegrees,WindSpeedMPH,WindSpeedGustMPH,Humidity,HourlyPrecipIn,Conditions,Clouds,dailyrainin,SoftwareType,DateUTC
2013-06-08 00:11:00,53.5,52.0,29.75,NNW,344,0.0,5.0,96,0.09,,,0.01,weatherlink.com 1.10,2013-06-08 04:11:00,
2013-06-08 00:26:00,53.5,52.0,29.73,NNW,336,3.0,5.0,96,0.08,,,0.03,weatherlink.com 1.10,2013-06-08 04:26:00,
2013-06-08 00:42:00,53.4,52.0,29.71,North,355,8.0,8.0,95,0.08,,,0.05,weatherlink.com 1.10,2013-06-08 04:42:00,
2013-06-08 00:56:00,53.3,52.0,29.70,NNE,17,2.0,6.0,95,0.07,,,0.06,weatherlink.com 1.10,2013-06-08 04:56:00,
2013-06-08 01:11:00,53.3,52.0,29.68,NNE,33,3.0,9.0,95,0.06,,,0.07,weatherlink.com 1.10,2013-06-08 05:11:00,
2013-06-08 01:26:00,53.3,52.0,29.68,NNE,26,0.0,7.0,95,0.05,,,0.08,weatherlink.com 1.10,2013-06-08 05:26:00,
2013-06-08 01:41:00,53.3,52.0,29.66,North,11,3.0,6.0,96,0.05,,,0.10,weatherlink.com 1.10,2013-06-08 05:41:00,
2013-06-08 01:56:00,53.2,52.0,29.67,NNE,26,2.0,6.0,96,0.06,,,0.12,weatherlink.com 1.10,2013-06-08 05:56:00,
2013-06-08 02:26:00,53.2,52.0,29.66,North,11,2.0,4.0,96,0.09,,,0.17,weatherlink.com 1.10,2013-06-08 06:26:00,
2013-06-08 02:41:00,53.2,52.0,29.64,NNE,24,1.0,5.0,96,0.09,,,0.19,weatherlink.com 1.10,2013-06-08 06:41:00,
2013-06-08 02:56:00,53.3,52.0,29.62,North,9,2.0,6.0,96,0.10,,,0.22,weatherlink.com 1.10,2013-06-08 06:56:00,
2013-06-08 03:11:00,53.3,52.0,29.62,North,5,1.0,6.0,96,0.10,,,0.24,weatherlink.com 1.10,2013-06-08 07:11:00,
2013-06-08 03:26:00,53.4,52.0,29.61,North,360,1.0,6.0,96,0.10,,,0.27,weatherlink.com 1.10,2013-06-08 07:26:00,
2013-06-08 03:41:00,53.5,52.0,29.61,North,5,3.0,4.0,96,0.10,,,0.29,weatherlink.com 1.10,2013-06-08 07:41:00,
2013-06-08 03:56:00,53.6,53.0,29.60,North,9,3.0,5.0,96,0.09,,,0.31,weatherlink.com 1.10,2013-06-08 07:56:00,
2013-06-08 04:11:00,53.7,53.0,29.59,North,355,2.0,5.0,97,0.10,,,0.34,weatherlink.com 1.10,2013-06-08 08:11:00,
2013-06-08 04:26:00,53.8,53.0,29.59,NNW,331,0.0,6.0,97,0.09,,,0.36,weatherlink.com 1.10,2013-06-08 08:26:00,
2013-06-08 04:41:00,53.9,53.0,29.58,NW,323,2.0,5.0,97,0.09,,,0.38,weatherlink.com 1.10,2013-06-08 08:41:00,
2013-06-08 04:56:00,54.0,53.0,29.57,NNE,13,0.0,6.0,97,0.09,,,0.40,weatherlink.com 1.10,2013-06-08 08:56:00,
2013-06-08 05:11:00,54.0,53.0,29.57,NNW,336,1.0,4.0,97,0.07,,,0.41,weatherlink.com 1.10,2013-06-08 09:11:00,
2013-06-08 05:26:00,54.1,53.0,29.56,North,355,2.0,8.0,97,0.07,,,0.43,weatherlink.com 1.10,2013-06-08 09:26:00,
2013-06-08 05:41:00,54.2,53.0,29.56,NNE,12,1.0,5.0,97,0.07,,,0.45,weatherlink.com 1.10,2013-06-08 09:41:00,
2013-06-08 05:56:00,54.3,54.0,29.56,WNW,294,1.0,6.0,97,0.06,,,0.46,weatherlink.com 1.10,2013-06-08 09:56:00,
2013-06-08 06:11:00,54.4,54.0,29.55,North,360,4.0,6.0,97,0.07,,,0.48,weatherlink.com 1.10,2013-06-08 10:11:00,
2013-06-08 06:26:00,54.6,54.0,29.55,North,5,2.0,7.0,97,0.06,,,0.49,weatherlink.com 1.10,2013-06-08 10:26:00,
2013-06-08 06:41:00,54.8,54.0,29.55,WNW,284,4.0,7.0,97,0.06,,,0.51,weatherlink.com 1.10,2013-06-08 10:41:00,
2013-06-08 06:56:00,55.0,54.0,29.55,North,355,3.0,7.0,97,0.06,,,0.52,weatherlink.com 1.10,2013-06-08 10:56:00,
2013-06-08 07:12:00,55.2,54.0,29.55,NNW,344,2.0,8.0,97,0.05,,,0.53,weatherlink.com 1.10,2013-06-08 11:12:00,
2013-06-08 07:27:00,55.3,55.0,29.55,North,5,3.0,8.0,97,0.05,,,0.54,weatherlink.com 1.10,2013-06-08 11:27:00,
2013-06-08 07:43:00,55.4,55.0,29.55,NW,311,4.0,10.0,97,0.05,,,0.56,weatherlink.com 1.10,2013-06-08 11:43:00,
2013-06-08 07:57:00,55.5,54.0,29.55,North,355,4.0,12.0,96,0.05,,,0.57,weatherlink.com 1.10,2013-06-08 11:57:00,
2013-06-08 08:12:00,55.8,55.0,29.55,NNE,15,6.0,7.0,97,0.04,,,0.57,weatherlink.com 1.10,2013-06-08 12:12:00,
2013-06-08 08:27:00,56.5,55.0,29.56,North,355,3.0,8.0,96,0.05,,,0.59,weatherlink.com 1.10,2013-06-08 12:27:00,
2013-06-08 08:42:00,56.9,56.0,29.57,NE,46,1.0,8.0,96,0.03,,,0.59,weatherlink.com 1.10,2013-06-08 12:42:00,
2013-06-08 08:57:00,57.4,56.0,29.60,NW,306,1.0,8.0,96,0.03,,,0.60,weatherlink.com 1.10,2013-06-08 12:57:00,
2013-06-08 09:12:00,58.0,57.0,29.60,NNW,342,1.0,7.0,95,0.03,,,0.61,weatherlink.com 1.10,2013-06-08 13:12:00,
2013-06-08 09:27:00,58.7,57.0,29.61,NNE,13,2.0,8.0,95,0.03,,,0.62,weatherlink.com 1.10,2013-06-08 13:27:00,
2013-06-08 09:42:00,61.3,59.0,29.61,NNE,19,3.0,10.0,93,0.04,,,0.63,weatherlink.com 1.10,2013-06-08 13:42:00,
2013-06-08 09:57:00,62.0,59.0,29.62,North,349,5.0,13.0,89,0.04,,,0.64,weatherlink.com 1.10,2013-06-08 13:57:00,
2013-06-08 10:12:00,63.2,60.0,29.62,North,5,5.0,8.0,89,0.04,,,0.65,weatherlink.com 1.10,2013-06-08 14:12:00,
2013-06-08 10:27:00,64.2,60.0,29.62,North,5,2.0,10.0,87,0.03,,,0.65,weatherlink.com 1.10,2013-06-08 14:27:00,
2013-06-08 10:42:00,66.5,61.0,29.63,East,92,1.0,11.0,82,0.03,,,0.66,weatherlink.com 1.10,2013-06-08 14:42:00,
2013-06-08 10:57:00,68.4,62.0,29.63,North,360,2.0,8.0,80,0.03,,,0.67,weatherlink.com 1.10,2013-06-08 14:57:00,
2013-06-08 11:12:00,69.4,62.0,29.64,NNE,13,3.0,9.0,77,0.03,,,0.68,weatherlink.com 1.10,2013-06-08 15:12:00,
2013-06-08 11:27:00,70.5,62.0,29.65,North,360,1.0,9.0,74,0.04,,,0.69,weatherlink.com 1.10,2013-06-08 15:27:00,
2013-06-08 11:42:00,70.7,63.0,29.66,SE,125,3.0,9.0,76,0.03,,,0.69,weatherlink.com 1.10,2013-06-08 15:42:00,
2013-06-08 11:57:00,72.0,61.0,29.66,WSW,250,3.0,9.0,69,0.03,,,0.70,weatherlink.com 1.10,2013-06-08 15:57:00,
2013-06-08 12:12:00,72.6,63.0,29.66,North,5,2.0,8.0,71,0.03,,,0.71,weatherlink.com 1.10,2013-06-08 16:12:00,
2013-06-08 12:27:00,73.3,62.0,29.67,West,265,6.0,13.0,68,0.02,,,0.71,weatherlink.com 1.10,2013-06-08 16:27:00,
2013-06-08 12:42:00,74.3,63.0,29.67,NW,323,3.0,12.0,68,0.02,,,0.71,weatherlink.com 1.10,2013-06-08 16:42:00,
2013-06-08 12:58:00,75.9,63.0,29.67,North,349,3.0,10.0,65,0.02,,,0.72,weatherlink.com 1.10,2013-06-08 16:58:00,
2013-06-08 13:13:00,77.0,63.0,29.67,West,280,3.0,7.0,63,0.01,,,0.72,weatherlink.com 1.10,2013-06-08 17:13:00,
2013-06-08 13:28:00,77.6,63.0,29.67,North,10,4.0,8.0,62,0.01,,,0.72,weatherlink.com 1.10,2013-06-08 17:28:00,
2013-06-08 13:43:00,78.9,64.0,29.68,East,79,2.0,6.0,61,0.02,,,0.73,weatherlink.com 1.10,2013-06-08 17:43:00,
2013-06-08 13:58:00,79.1,64.0,29.68,SE,134,2.0,9.0,61,0.01,,,0.73,weatherlink.com 1.10,2013-06-08 17:58:00,
2013-06-08 14:13:00,77.2,63.0,29.69,SE,137,1.0,9.0,62,0.01,,,0.73,weatherlink.com 1.10,2013-06-08 18:13:00,
2013-06-08 14:28:00,77.8,64.0,29.69,WNW,282,1.0,5.0,63,0.01,,,0.73,weatherlink.com 1.10,2013-06-08 18:28:00,
2013-06-08 14:43:00,78.0,63.0,29.69,South,191,4.0,7.0,61,0.00,,,0.73,weatherlink.com 1.10,2013-06-08 18:43:00,
2013-06-08 14:58:00,79.5,63.0,29.70,South,176,7.0,11.0,58,0.00,,,0.73,weatherlink.com 1.10,2013-06-08 18:58:00,
2013-06-08 15:13:00,79.5,63.0,29.70,WNW,303,2.0,9.0,57,0.00,,,0.73,weatherlink.com 1.10,2013-06-08 19:13:00,
2013-06-08 15:28:00,78.5,63.0,29.70,SE,136,2.0,4.0,59,0.00,,,0.73,weatherlink.com 1.10,2013-06-08 19:28:00,
2013-06-08 15:43:00,79.4,64.0,29.71,NW,325,4.0,10.0,60,0.01,,,0.74,weatherlink.com 1.10,2013-06-08 19:43:00,
2013-06-08 15:58:00,79.3,63.0,29.72,SE,136,1.0,11.0,58,0.01,,,0.74,weatherlink.com 1.10,2013-06-08 19:58:00,
2013-06-08 16:13:00,79.8,63.0,29.72,NNE,12,2.0,8.0,56,0.01,,,0.74,weatherlink.com 1.10,2013-06-08 20:13:00,
2013-06-08 16:28:00,78.2,62.0,29.72,NNW,348,1.0,7.0,58,0.01,,,0.74,weatherlink.com 1.10,2013-06-08 20:28:00,
2013-06-08 16:43:00,78.2,63.0,29.73,ESE,102,1.0,9.0,59,0.00,,,0.74,weatherlink.com 1.10,2013-06-08 20:43:00,
2013-06-08 16:58:00,77.6,63.0,29.73,West,273,4.0,6.0,60,0.00,,,0.74,weatherlink.com 1.10,2013-06-08 20:58:00,
2013-06-08 17:13:00,76.8,63.0,29.75,South,173,2.0,5.0,62,0.00,,,0.74,weatherlink.com 1.10,2013-06-08 21:13:00,
2013-06-08 17:28:00,76.2,63.0,29.76,NNE,22,4.0,8.0,63,0.00,,,0.74,weatherlink.com 1.10,2013-06-08 21:28:00,
2013-06-08 17:43:00,74.8,62.0,29.76,NW,306,1.0,7.0,64,0.00,,,0.74,weatherlink.com 1.10,2013-06-08 21:43:00,
2013-06-08 17:58:00,74.1,61.0,29.77,NE,38,3.0,10.0,63,0.00,,,0.74,weatherlink.com 1.10,2013-06-08 21:58:00,
2013-06-08 18:13:00,73.3,60.0,29.78,East,80,2.0,9.0,64,0.01,,,0.75,weatherlink.com 1.10,2013-06-08 22:13:00,
2013-06-08 18:28:00,72.5,60.0,29.79,NW,315,4.0,6.0,66,0.01,,,0.75,weatherlink.com 1.10,2013-06-08 22:28:00,
2013-06-08 18:43:00,72.0,60.0,29.79,NNW,342,0.0,6.0,67,0.01,,,0.75,weatherlink.com 1.10,2013-06-08 22:43:00,
2013-06-08 18:58:00,71.6,61.0,29.80,ENE,68,0.0,3.0,69,0.01,,,0.75,weatherlink.com 1.10,2013-06-08 22:58:00,
2013-06-08 19:13:00,71.3,61.0,29.80,ENE,61,0.0,2.0,70,0.00,,,0.75,weatherlink.com 1.10,2013-06-08 23:13:00,
2013-06-08 19:28:00,71.1,60.0,29.81,SW,220,0.0,7.0,69,0.00,,,0.75,weatherlink.com 1.10,2013-06-08 23:28:00,
2013-06-08 19:43:00,70.9,60.0,29.81,South,180,0.0,3.0,69,0.00,,,0.75,weatherlink.com 1.10,2013-06-08 23:43:00,
2013-06-08 19:58:00,70.4,61.0,29.81,WNW,288,0.0,1.0,72,0.00,,,0.75,weatherlink.com 1.10,2013-06-08 23:58:00,
2013-06-08 20:13:00,69.8,61.0,29.81,NW,307,0.0,1.0,73,0.00,,,0.75,weatherlink.com 1.10,2013-06-09 00:13:00,
2013-06-08 20:28:00,69.1,60.0,29.82,SE,128,0.0,4.0,73,0.00,,,0.75,weatherlink.com 1.10,2013-06-09 00:28:00,
2013-06-08 20:43:00,68.5,60.0,29.82,WSW,246,2.0,5.0,74,0.00,,,0.75,weatherlink.com 1.10,2013-06-09 00:43:00,
2013-06-08 20:58:00,67.9,60.0,29.82,SSE,158,0.0,1.0,76,0.00,,,0.75,weatherlink.com 1.10,2013-06-09 00:58:00,
2013-06-08 21:14:00,67.0,60.0,29.83,SSE,158,0.0,0.0,79,0.00,,,0.75,weatherlink.com 1.10,2013-06-09 01:14:00,
2013-06-08 21:29:00,65.8,60.0,29.84,SSE,158,0.0,3.0,82,0.00,,,0.75,weatherlink.com 1.10,2013-06-09 01:29:00,
2013-06-08 21:44:00,65.2,60.0,29.84,SW,227,0.0,2.0,84,0.00,,,0.75,weatherlink.com 1.10,2013-06-09 01:44:00,
2013-06-08 21:59:00,64.7,60.0,29.85,South,171,0.0,1.0,84,0.00,,,0.75,weatherlink.com 1.10,2013-06-09 01:59:00,
2013-06-08 22:14:00,64.2,60.0,29.86,South,171,0.0,1.0,85,0.00,,,0.75,weatherlink.com 1.10,2013-06-09 02:14:00,
2013-06-08 22:29:00,63.7,60.0,29.86,South,171,0.0,0.0,86,0.00,,,0.75,weatherlink.com 1.10,2013-06-09 02:29:00,
2013-06-08 22:44:00,63.3,59.0,29.87,South,171,0.0,2.0,87,0.00,,,0.75,weatherlink.com 1.10,2013-06-09 02:44:00,
2013-06-08 22:59:00,63.0,59.0,29.87,South,171,0.0,0.0,88,0.00,,,0.75,weatherlink.com 1.10,2013-06-09 02:59:00,
2013-06-08 23:14:00,62.6,59.0,29.87,South,171,0.0,0.0,89,0.00,,,0.75,weatherlink.com 1.10,2013-06-09 03:14:00,
2013-06-08 23:29:00,62.4,60.0,29.87,NNE,28,1.0,2.0,90,0.00,,,0.75,weatherlink.com 1.10,2013-06-09 03:29:00,
2013-06-08 23:44:00,62.1,60.0,29.87,NNE,28,0.0,1.0,91,0.00,,,0.75,weatherlink.com 1.10,2013-06-09 03:44:00,
2013-06-08 23:59:00,61.7,59.0,29.88,NNE,28,0.0,1.0,91,0.00,,,0.75,weatherlink.com 1.10,2013-06-09 03:59:00,